createdAt,value
2022-11-21T00:03:59.783Z,7.47
2022-11-21T00:08:01.377Z,7.45
2022-11-21T00:12:03.039Z,7.42
2022-11-21T00:16:11.122Z,7.36
2022-11-21T00:20:12.644Z,7.34
2022-11-21T00:24:14.195Z,7.33
2022-11-21T00:28:15.674Z,7.32
2022-11-21T00:32:17.280Z,7.29
2022-11-21T00:36:18.862Z,7.27
2022-11-21T00:40:20.415Z,7.23
2022-11-21T00:44:21.947Z,7.23
2022-11-21T00:48:23.490Z,7.21
2022-11-21T00:52:24.986Z,7.21
2022-11-21T00:56:26.504Z,7.18
2022-11-21T01:00:28.090Z,7.16
2022-11-21T01:04:33.841Z,7.15
2022-11-21T01:08:37.756Z,7.14
2022-11-21T01:12:39.451Z,7.12
2022-11-21T01:16:41.046Z,7.09
2022-11-21T01:20:42.554Z,7.09
2022-11-21T01:24:44.041Z,7.09
2022-11-21T01:28:45.911Z,7.09
2022-11-21T01:32:50.293Z,7.14
2022-11-21T01:36:51.823Z,7.15
2022-11-21T01:40:53.316Z,7.16
2022-11-21T01:44:54.960Z,7.16
2022-11-21T01:49:05.121Z,7.16
2022-11-21T01:53:06.864Z,7.14
2022-11-21T01:57:23.885Z,7.14
2022-11-21T02:01:25.912Z,7.11
2022-11-21T02:05:31.267Z,7.14
2022-11-21T02:09:35.918Z,7.12
2022-11-21T02:13:37.556Z,7.12
2022-11-21T02:17:39.104Z,7.12
2022-11-21T02:21:46.597Z,7.12
2022-11-21T02:25:48.170Z,7.14
2022-11-21T02:29:49.688Z,7.15
2022-11-21T02:33:51.187Z,7.16
2022-11-21T02:38:07.825Z,7.18
2022-11-21T02:42:26.337Z,7.21
2022-11-21T02:46:28.962Z,7.29
2022-11-21T02:50:33.545Z,7.32
2022-11-21T02:54:35.082Z,7.36
2022-11-21T02:58:36.650Z,7.39
2022-11-21T03:02:38.313Z,7.44
2022-11-21T03:06:39.885Z,7.47
2022-11-21T03:10:41.405Z,7.48
2022-11-21T03:14:42.978Z,7.50
2022-11-21T03:18:44.509Z,7.51
2022-11-21T03:22:46.036Z,7.54
2022-11-21T03:26:47.681Z,7.54
2022-11-21T03:30:49.213Z,7.57
2022-11-21T03:34:50.770Z,7.58
2022-11-21T03:38:52.343Z,7.57
2022-11-21T03:42:53.851Z,7.52
2022-11-21T03:46:55.397Z,7.47
2022-11-21T03:50:56.913Z,7.45
2022-11-21T03:54:58.470Z,7.41
2022-11-21T03:59:00.043Z,7.41
2022-11-21T04:03:01.605Z,7.42
2022-11-21T04:07:03.198Z,7.42
2022-11-21T04:11:05.294Z,7.41
2022-11-21T04:15:12.088Z,7.42
2022-11-21T04:19:15.053Z,7.42
2022-11-21T04:23:16.633Z,7.45
2022-11-21T04:27:18.186Z,7.48
2022-11-21T04:31:19.676Z,7.47
2022-11-21T04:35:22.054Z,7.47
2022-11-21T04:39:23.613Z,7.45
2022-11-21T04:43:25.190Z,7.47
2022-11-21T04:47:26.704Z,7.47
2022-11-21T04:51:28.248Z,7.44
2022-11-21T04:55:31.923Z,7.44
2022-11-21T04:59:33.441Z,7.44
2022-11-21T05:03:35.583Z,7.42
2022-11-21T05:07:37.539Z,7.42
2022-11-21T05:11:57.840Z,7.42
2022-11-21T05:15:59.404Z,7.44
2022-11-21T05:20:00.968Z,7.47
2022-11-21T05:24:02.538Z,7.47
2022-11-21T05:28:04.158Z,7.47
2022-11-21T05:32:05.795Z,7.48
2022-11-21T05:36:07.397Z,7.48
2022-11-21T05:40:09.359Z,7.50
2022-11-21T05:44:10.892Z,7.50
2022-11-21T05:48:12.427Z,7.50
2022-11-21T05:52:13.946Z,7.51
2022-11-21T05:56:17.945Z,7.51
2022-11-21T06:00:19.808Z,7.52
2022-11-21T06:04:21.543Z,7.54
2022-11-21T06:08:23.061Z,7.54
2022-11-21T06:12:25.769Z,7.55
2022-11-21T06:16:27.522Z,7.54
2022-11-21T06:20:29.222Z,7.54
2022-11-21T06:24:30.896Z,7.54
2022-11-21T06:28:36.663Z,7.52
2022-11-21T06:32:38.367Z,7.54
2022-11-21T06:36:39.984Z,7.54
2022-11-21T06:40:41.515Z,7.54
2022-11-21T06:44:43.017Z,7.51
2022-11-21T06:48:44.976Z,7.50
2022-11-21T06:52:46.558Z,7.51
2022-11-21T06:56:48.101Z,7.51
2022-11-21T07:00:49.768Z,7.51
2022-11-21T07:04:51.388Z,7.50
2022-11-21T07:09:30.873Z,7.50
2022-11-21T07:13:21.703Z,7.54
2022-11-21T07:17:23.196Z,7.55
2022-11-21T07:21:24.772Z,7.58
2022-11-21T07:25:26.554Z,7.62
2022-11-21T07:29:28.225Z,7.63
2022-11-21T07:33:30.431Z,7.63
2022-11-21T07:37:32.069Z,7.60
2022-11-21T07:41:33.657Z,7.63
2022-11-21T07:45:35.232Z,7.63
2022-11-21T07:49:36.713Z,7.70
2022-11-21T07:53:38.265Z,7.70
2022-11-21T07:57:39.793Z,7.67
2022-11-21T08:01:45.221Z,7.67
2022-11-21T08:05:47.056Z,7.63
2022-11-21T08:09:48.729Z,7.66
2022-11-21T08:13:50.358Z,7.67
2022-11-21T08:17:51.888Z,7.70
2022-11-21T08:21:53.467Z,7.74
2022-11-21T08:25:54.998Z,7.71
2022-11-21T08:29:56.571Z,7.67
2022-11-21T08:33:58.227Z,7.67
2022-11-21T08:38:00.929Z,7.74
2022-11-21T08:42:05.330Z,7.86
2022-11-21T08:46:06.894Z,8.03
2022-11-21T08:50:09.402Z,8.18
2022-11-21T08:54:11.161Z,8.22
2022-11-21T08:58:12.908Z,8.21
2022-11-21T09:02:14.524Z,8.17
2022-11-21T09:06:16.060Z,8.17
2022-11-21T09:10:17.630Z,8.20
2022-11-21T09:14:37.530Z,8.22
2022-11-21T09:18:39.010Z,8.37
2022-11-21T09:22:40.652Z,8.49
2022-11-21T09:26:42.173Z,8.58
2022-11-21T09:30:43.782Z,8.61
2022-11-21T09:34:45.364Z,8.65
2022-11-21T09:38:48.987Z,8.68
2022-11-21T09:43:06.185Z,8.73
2022-11-21T09:47:27.083Z,8.82
2022-11-21T09:51:31.037Z,8.93
2022-11-21T09:55:35.553Z,8.98
2022-11-21T09:59:39.969Z,9.03
2022-11-21T10:03:47.358Z,9.10
2022-11-21T10:07:53.482Z,9.17
2022-11-21T10:12:25.214Z,9.22
2022-11-21T10:16:49.331Z,9.20
2022-11-21T10:21:07.968Z,9.27
2022-11-21T10:25:27.591Z,9.32
2022-11-21T10:29:32.186Z,9.38
2022-11-21T10:33:36.311Z,9.44
2022-11-21T10:37:39.515Z,9.56
2022-11-21T10:41:56.091Z,9.67
2022-11-21T10:45:57.813Z,9.86
2022-11-21T10:50:18.186Z,9.99
2022-11-21T10:54:35.255Z,10.10
2022-11-21T10:58:44.478Z,10.26
2022-11-21T11:03:07.066Z,10.38
2022-11-21T11:07:27.176Z,10.54
2022-11-21T11:11:28.780Z,10.62
2022-11-21T11:15:50.603Z,10.69
2022-11-21T11:20:38.076Z,10.63
2022-11-21T11:24:57.455Z,10.81
2022-11-21T11:29:14.634Z,10.87
2022-11-21T11:33:37.139Z,11.05
2022-11-21T11:37:41.662Z,11.21
2022-11-21T11:42:19.315Z,11.21
2022-11-21T11:47:00.825Z,11.16
2022-11-21T11:51:10.683Z,11.08
2022-11-21T11:55:37.182Z,11.12
2022-11-21T11:59:47.067Z,11.19
2022-11-21T12:04:06.964Z,11.11
2022-11-21T12:08:40.878Z,11.11
2022-11-21T12:12:43.658Z,11.19
2022-11-21T12:16:45.412Z,11.11
2022-11-21T12:20:59.286Z,11.06
2022-11-21T12:25:01.029Z,11.11
2022-11-21T12:29:40.898Z,11.20
2022-11-21T12:34:30.272Z,11.17
2022-11-21T12:39:19.648Z,11.19
2022-11-21T12:43:36.328Z,11.39
2022-11-21T12:48:00.674Z,11.41
2022-11-21T12:52:50.466Z,11.36
2022-11-21T12:56:59.240Z,11.31
2022-11-21T13:01:19.684Z,11.27
2022-11-21T13:05:37.776Z,11.17
2022-11-21T13:09:46.366Z,11.23
2022-11-21T13:13:56.473Z,11.31
2022-11-21T13:18:15.909Z,11.38
2022-11-21T13:22:36.025Z,11.51
2022-11-21T13:26:37.589Z,11.54
2022-11-21T13:30:49.252Z,11.49
2022-11-21T13:34:50.765Z,11.48
2022-11-21T13:38:55.163Z,11.44
2022-11-21T13:43:32.144Z,11.42
2022-11-21T13:47:56.783Z,11.31
2022-11-21T13:52:03.206Z,11.21
2022-11-21T13:56:26.500Z,11.16
2022-11-21T14:00:56.156Z,11.03
2022-11-21T14:05:22.670Z,10.90
2022-11-21T14:09:31.747Z,10.75
2022-11-21T14:13:37.573Z,10.63
2022-11-21T14:17:47.529Z,10.51
2022-11-21T14:21:50.360Z,10.39
2022-11-21T14:26:21.062Z,10.34
2022-11-21T14:30:28.018Z,10.34
2022-11-21T14:34:31.779Z,10.34
2022-11-21T14:43:33.464Z,10.34
2022-11-21T14:47:35.119Z,10.31
2022-11-21T14:51:37.039Z,10.26
2022-11-21T14:55:38.897Z,10.20
2022-11-21T14:59:41.539Z,10.16
2022-11-21T15:04:14.229Z,10.10
2022-11-21T15:09:05.981Z,10.02
2022-11-21T15:12:48.128Z,9.96
2022-11-21T15:16:52.991Z,9.89
2022-11-21T15:21:01.422Z,9.83
2022-11-21T15:25:17.839Z,9.78
2022-11-21T15:29:21.134Z,9.73
2022-11-21T15:33:22.711Z,9.65
2022-11-21T15:37:25.296Z,9.62
2022-11-21T15:41:36.822Z,9.52
2022-11-21T15:45:38.377Z,9.45
2022-11-21T15:49:39.865Z,9.40
2022-11-21T15:53:41.470Z,9.34
2022-11-21T15:57:43.098Z,9.26
2022-11-21T16:01:49.616Z,9.20
2022-11-21T16:05:51.190Z,9.16
2022-11-21T16:09:52.744Z,9.12
2022-11-21T16:13:56.335Z,9.01
2022-11-21T16:17:57.860Z,8.94
2022-11-21T16:21:59.401Z,8.88
2022-11-21T16:26:01.513Z,8.83
2022-11-21T16:30:03.284Z,8.75
2022-11-21T16:34:04.859Z,8.73
2022-11-21T16:38:10.204Z,8.70
2022-11-21T16:42:11.870Z,8.67
2022-11-21T16:46:14.069Z,8.61
2022-11-21T16:50:15.787Z,8.58
2022-11-21T16:54:17.350Z,8.54
2022-11-21T16:58:18.882Z,8.47
2022-11-21T17:02:20.375Z,8.45
2022-11-21T17:06:24.612Z,8.39
2022-11-21T17:10:32.517Z,8.37
2022-11-21T17:14:35.505Z,8.37
2022-11-21T17:18:37.451Z,8.36
2022-11-21T17:22:39.073Z,8.31
2022-11-21T17:26:40.657Z,8.28
2022-11-21T17:30:44.141Z,8.27
2022-11-21T17:34:45.765Z,8.27
2022-11-21T17:38:48.042Z,8.25
2022-11-21T17:42:49.744Z,8.22
2022-11-21T17:46:51.462Z,8.22
2022-11-21T17:51:11.286Z,8.22
2022-11-21T17:55:12.910Z,8.25
2022-11-21T17:59:14.982Z,8.25
2022-11-21T18:03:16.560Z,8.22
2022-11-21T18:07:18.153Z,8.22
2022-11-21T18:11:21.436Z,8.20
2022-11-21T18:15:23.267Z,8.22
2022-11-21T18:19:24.902Z,8.21
2022-11-21T18:23:27.583Z,8.17
2022-11-21T18:27:29.068Z,8.18
2022-11-21T18:31:30.962Z,8.17
2022-11-21T18:35:32.531Z,8.20
2022-11-21T18:39:34.073Z,8.20
2022-11-21T18:43:35.672Z,8.24
2022-11-21T18:47:37.264Z,8.25
2022-11-21T18:51:38.877Z,8.25
2022-11-21T18:55:40.499Z,8.25
2022-11-21T18:59:42.008Z,8.27
2022-11-21T19:03:43.953Z,8.25
2022-11-21T19:07:45.689Z,8.25
2022-11-21T19:11:47.526Z,8.21
2022-11-21T19:15:49.071Z,8.18
2022-11-21T19:19:50.859Z,8.14
2022-11-21T19:23:52.720Z,8.17
2022-11-21T19:27:54.283Z,8.18
2022-11-21T19:31:56.080Z,8.17
2022-11-21T19:36:02.651Z,8.18
2022-11-21T19:40:05.084Z,8.20
2022-11-21T19:44:06.707Z,8.20
2022-11-21T19:48:08.310Z,8.20
2022-11-21T19:52:09.943Z,8.21
2022-11-21T19:56:21.459Z,8.24
2022-11-21T20:00:25.292Z,8.25
2022-11-21T20:04:27.197Z,8.27
2022-11-21T20:08:29.430Z,8.25
2022-11-21T20:12:31.103Z,8.27
2022-11-21T20:16:35.408Z,8.27
2022-11-21T20:20:36.927Z,8.28
2022-11-21T20:24:41.978Z,8.24
2022-11-21T20:28:45.092Z,8.25
2022-11-21T20:32:46.689Z,8.22
2022-11-21T20:36:48.318Z,8.21
2022-11-21T20:40:52.965Z,8.17
2022-11-21T20:45:54.525Z,8.12
2022-11-21T20:49:16.406Z,8.10
2022-11-21T20:53:50.855Z,8.09
2022-11-21T20:57:39.669Z,8.07
2022-11-21T21:01:41.627Z,8.06
2022-11-21T21:05:43.267Z,8.06
2022-11-21T21:09:44.856Z,7.99
2022-11-21T21:13:50.716Z,8.02
2022-11-21T21:17:52.315Z,8.00
2022-11-21T21:21:53.922Z,7.96
2022-11-21T21:25:55.554Z,8.00
2022-11-21T21:29:57.299Z,8.00
2022-11-21T21:33:59.097Z,7.96
2022-11-21T21:38:03.689Z,7.91
2022-11-21T21:42:07.739Z,7.92
2022-11-21T21:46:11.695Z,7.91
2022-11-21T21:50:15.934Z,7.91
2022-11-21T21:54:20.497Z,7.86
2022-11-21T21:58:22.100Z,7.82
2022-11-21T22:02:23.700Z,7.82
2022-11-21T22:06:26.091Z,7.82
2022-11-21T22:10:27.679Z,7.82
2022-11-21T22:14:29.520Z,7.82
2022-11-21T22:18:31.627Z,7.77
2022-11-21T22:22:33.292Z,7.73
2022-11-21T22:26:34.852Z,7.73
2022-11-21T22:30:36.642Z,7.76
2022-11-21T22:34:38.146Z,7.73
2022-11-21T22:38:39.781Z,7.74
2022-11-21T22:42:41.439Z,7.74
2022-11-21T22:46:43.052Z,7.73
2022-11-21T22:50:44.863Z,7.66
2022-11-21T22:54:46.392Z,7.67
2022-11-21T22:58:48.379Z,7.62
2022-11-21T23:02:50.203Z,7.67
2022-11-21T23:06:51.862Z,7.63
2022-11-21T23:10:53.427Z,7.66
2022-11-21T23:14:55.028Z,7.67
2022-11-21T23:18:56.849Z,7.66
2022-11-21T23:22:58.474Z,7.63
2022-11-21T23:26:59.991Z,7.66
2022-11-21T23:31:01.920Z,7.63
2022-11-21T23:35:03.957Z,7.69
2022-11-21T23:39:05.619Z,7.71
2022-11-21T23:43:07.212Z,7.74
2022-11-21T23:47:08.803Z,7.71
2022-11-21T23:51:10.539Z,7.77
2022-11-21T23:55:12.146Z,7.77
2022-11-21T23:59:13.705Z,7.79
